createdAt,value
2023-05-05T00:00:17.525Z,22.90
2023-05-05T00:02:47.311Z,22.90
2023-05-05T00:05:17.485Z,22.90
2023-05-05T00:07:47.122Z,22.95
2023-05-05T00:10:16.716Z,22.92
2023-05-05T00:12:46.356Z,22.89
2023-05-05T00:15:16.003Z,22.90
2023-05-05T00:17:45.664Z,22.91
2023-05-05T00:20:15.661Z,22.92
2023-05-05T00:22:45.246Z,22.96
2023-05-05T00:25:14.866Z,22.96
2023-05-05T00:27:44.455Z,22.96
2023-05-05T00:30:15.298Z,22.97
2023-05-05T00:32:44.957Z,22.95
2023-05-05T00:35:14.782Z,22.95
2023-05-05T00:37:44.760Z,22.97
2023-05-05T00:40:15.399Z,22.98
2023-05-05T00:42:46.532Z,22.99
2023-05-05T00:45:17.790Z,22.99
2023-05-05T00:47:51.320Z,22.99
2023-05-05T00:50:31.732Z,22.98
2023-05-05T00:53:06.382Z,22.97
2023-05-05T00:55:37.102Z,22.96
2023-05-05T00:58:07.018Z,23.00
2023-05-05T01:00:36.671Z,23.05
2023-05-05T01:03:07.467Z,23.05
2023-05-05T01:05:46.931Z,23.04
2023-05-05T01:08:51.893Z,23.11
2023-05-05T01:11:50.656Z,23.07
2023-05-05T01:14:25.366Z,23.14
2023-05-05T01:17:10.583Z,23.16
2023-05-05T01:19:58.464Z,23.14
2023-05-05T01:22:38.684Z,23.11
2023-05-05T01:25:52.693Z,23.21
2023-05-05T01:28:37.462Z,23.20
2023-05-05T01:31:06.416Z,23.22
2023-05-05T01:33:50.219Z,23.19
2023-05-05T01:36:40.884Z,23.24
2023-05-05T01:39:12.315Z,23.21
2023-05-05T01:41:50.586Z,23.24
2023-05-05T01:44:21.510Z,23.24
2023-05-05T01:46:51.914Z,23.23
2023-05-05T01:49:21.619Z,23.24
2023-05-05T01:51:51.412Z,23.19
2023-05-05T01:54:21.502Z,23.19
2023-05-05T01:56:51.365Z,23.27
2023-05-05T01:59:22.636Z,23.24
2023-05-05T02:01:53.612Z,23.24
2023-05-05T02:04:24.332Z,23.20
2023-05-05T02:06:54.700Z,23.25
2023-05-05T02:09:27.692Z,23.21
2023-05-05T02:11:59.193Z,23.23
2023-05-05T02:14:31.285Z,23.27
2023-05-05T02:17:01.339Z,23.28
2023-05-05T02:19:44.188Z,23.29
2023-05-05T02:22:14.014Z,23.33
2023-05-05T02:24:43.643Z,23.33
2023-05-05T02:27:14.105Z,23.33
2023-05-05T02:29:49.123Z,23.35
2023-05-05T02:32:39.840Z,23.29
2023-05-05T02:35:25.070Z,23.36
2023-05-05T02:38:01.575Z,23.36
2023-05-05T02:40:34.055Z,23.38
2023-05-05T02:43:07.093Z,23.41
2023-05-05T02:45:36.795Z,23.45
2023-05-05T02:48:07.426Z,23.43
2023-05-05T02:50:37.193Z,23.41
2023-05-05T02:53:06.968Z,23.46
2023-05-05T02:56:04.129Z,23.43
2023-05-05T02:58:45.900Z,23.42
2023-05-05T03:01:39.731Z,23.47
2023-05-05T03:04:14.467Z,23.49
2023-05-05T03:06:45.920Z,23.50
2023-05-05T03:09:39.385Z,23.51
2023-05-05T03:12:12.503Z,23.52
2023-05-05T03:14:44.177Z,23.55
2023-05-05T03:17:14.756Z,23.54
2023-05-05T03:19:45.149Z,23.56
2023-05-05T03:22:15.177Z,23.59
2023-05-05T03:24:44.759Z,23.64
2023-05-05T03:27:14.368Z,23.66
2023-05-05T03:29:44.234Z,23.66
2023-05-05T03:32:14.040Z,23.65
2023-05-05T03:34:43.758Z,23.64
2023-05-05T03:37:13.372Z,23.61
2023-05-05T03:39:43.005Z,23.61
2023-05-05T03:42:12.667Z,23.62
2023-05-05T03:44:42.339Z,23.64
2023-05-05T03:47:11.929Z,23.66
2023-05-05T03:49:41.643Z,23.63
2023-05-05T03:52:12.184Z,23.66
2023-05-05T03:54:44.580Z,23.62
2023-05-05T03:57:14.199Z,23.63
2023-05-05T03:59:44.725Z,23.64
2023-05-05T04:02:15.143Z,23.60
2023-05-05T04:04:46.396Z,23.61
2023-05-05T04:07:16.092Z,23.60
2023-05-05T04:09:50.486Z,23.60
2023-05-05T04:12:19.491Z,23.60
2023-05-05T04:14:49.089Z,23.60
2023-05-05T04:17:18.649Z,23.58
2023-05-05T04:19:48.309Z,23.62
2023-05-05T04:22:17.961Z,23.63
2023-05-05T04:24:48.742Z,23.62
2023-05-05T04:27:18.293Z,23.61
2023-05-05T04:29:47.943Z,23.62
2023-05-05T04:32:17.603Z,23.62
2023-05-05T04:34:47.258Z,23.63
2023-05-05T04:37:16.988Z,23.61
2023-05-05T04:39:46.742Z,23.64
2023-05-05T04:42:16.403Z,23.63
2023-05-05T04:44:46.023Z,23.62
2023-05-05T04:47:15.632Z,23.58
2023-05-05T04:49:46.424Z,23.62
2023-05-05T04:52:16.011Z,23.62
2023-05-05T04:54:45.573Z,23.60
2023-05-05T04:57:15.178Z,23.59
2023-05-05T04:59:44.776Z,23.57
2023-05-05T05:02:14.561Z,23.59
2023-05-05T05:04:44.189Z,23.59
2023-05-05T05:07:14.844Z,23.60
2023-05-05T05:09:44.495Z,23.61
2023-05-05T05:12:14.040Z,23.64
2023-05-05T05:14:43.572Z,23.64
2023-05-05T05:17:13.194Z,23.65
2023-05-05T05:19:42.859Z,23.70
2023-05-05T05:22:12.645Z,23.72
2023-05-05T05:24:42.318Z,23.72
2023-05-05T05:27:11.954Z,23.70
2023-05-05T05:29:41.550Z,23.78
2023-05-05T05:32:11.246Z,23.76
2023-05-05T05:34:40.865Z,23.75
2023-05-05T05:37:10.409Z,23.72
2023-05-05T05:39:43.640Z,23.68
2023-05-05T05:42:13.479Z,23.73
2023-05-05T05:44:43.115Z,23.73
2023-05-05T05:47:12.827Z,23.68
2023-05-05T05:49:42.881Z,23.68
2023-05-05T05:52:12.459Z,23.65
2023-05-05T05:54:42.062Z,23.68
2023-05-05T05:57:11.747Z,23.69
2023-05-05T05:59:41.387Z,23.72
2023-05-05T06:02:11.257Z,23.69
2023-05-05T06:04:40.974Z,23.65
2023-05-05T06:07:10.657Z,23.66
2023-05-05T06:09:40.316Z,23.69
2023-05-05T06:12:09.923Z,23.66
2023-05-05T06:14:39.510Z,23.68
2023-05-05T06:17:09.085Z,23.63
2023-05-05T06:19:41.248Z,23.64
2023-05-05T06:22:10.898Z,23.66
2023-05-05T06:24:40.586Z,23.66
2023-05-05T06:27:10.260Z,23.62
2023-05-05T06:29:39.853Z,23.66
2023-05-05T06:32:09.965Z,23.68
2023-05-05T06:34:39.601Z,23.68
2023-05-05T06:37:09.216Z,23.72
2023-05-05T06:39:38.804Z,23.64
2023-05-05T06:42:08.618Z,23.60
2023-05-05T06:44:38.309Z,23.55
2023-05-05T06:47:08.112Z,23.60
2023-05-05T06:49:38.171Z,23.61
2023-05-05T06:52:09.736Z,23.68
2023-05-05T06:54:39.310Z,23.70
2023-05-05T06:57:09.203Z,23.65
2023-05-05T06:59:38.773Z,23.58
2023-05-05T07:02:08.904Z,23.55
2023-05-05T07:04:38.776Z,23.59
2023-05-05T07:07:08.339Z,23.54
2023-05-05T07:09:37.977Z,23.49
2023-05-05T07:12:07.947Z,23.48
2023-05-05T07:14:37.518Z,23.53
2023-05-05T07:17:07.258Z,23.54
2023-05-05T07:19:36.896Z,23.48
2023-05-05T07:22:06.564Z,23.48
2023-05-05T07:24:36.214Z,23.46
2023-05-05T07:27:05.935Z,23.44
2023-05-05T07:29:35.543Z,23.47
2023-05-05T07:32:05.269Z,23.45
2023-05-05T07:34:35.989Z,23.47
2023-05-05T07:37:06.710Z,23.43
2023-05-05T07:39:36.482Z,23.44
2023-05-05T07:42:06.199Z,23.48
2023-05-05T07:44:36.278Z,23.42
2023-05-05T07:47:05.886Z,23.40
2023-05-05T07:49:35.449Z,23.40
2023-05-05T07:52:05.094Z,23.41
2023-05-05T07:54:34.773Z,23.37
2023-05-05T07:57:04.374Z,23.41
2023-05-05T07:59:33.944Z,23.33
2023-05-05T08:02:03.781Z,23.35
2023-05-05T08:04:33.488Z,23.35
2023-05-05T08:07:03.242Z,23.32
2023-05-05T08:09:32.965Z,23.34
2023-05-05T08:12:04.188Z,23.32
2023-05-05T08:14:34.506Z,23.31
2023-05-05T08:17:04.136Z,23.30
2023-05-05T08:19:33.820Z,23.30
2023-05-05T08:22:03.479Z,23.30
2023-05-05T08:24:33.160Z,23.30
2023-05-05T08:27:03.511Z,23.26
2023-05-05T08:29:33.122Z,23.25
2023-05-05T08:32:02.776Z,23.27
2023-05-05T08:34:32.401Z,23.24
2023-05-05T08:37:02.125Z,23.26
2023-05-05T08:39:34.996Z,23.26
2023-05-05T08:42:05.614Z,23.29
2023-05-05T08:44:36.087Z,23.22
2023-05-05T08:47:06.349Z,23.24
2023-05-05T08:49:50.439Z,23.21
2023-05-05T08:52:26.179Z,23.29
2023-05-05T08:55:12.361Z,23.25
2023-05-05T08:58:07.762Z,23.23
2023-05-05T09:00:37.686Z,23.26
2023-05-05T09:03:07.530Z,23.28
2023-05-05T09:05:38.397Z,23.29
2023-05-05T09:08:11.115Z,23.29
2023-05-05T09:10:43.741Z,23.25
2023-05-05T09:13:19.655Z,23.28
2023-05-05T09:15:49.367Z,23.28
2023-05-05T09:18:18.943Z,23.25
2023-05-05T09:20:48.596Z,23.21
2023-05-05T09:23:22.585Z,23.25
2023-05-05T09:26:11.425Z,23.23
2023-05-05T09:28:41.299Z,23.23
2023-05-05T09:31:17.568Z,23.24
2023-05-05T09:33:47.207Z,23.20
2023-05-05T09:36:17.263Z,23.18
2023-05-05T09:39:06.434Z,23.16
2023-05-05T09:41:45.902Z,23.17
2023-05-05T09:44:18.677Z,23.21
2023-05-05T09:46:56.722Z,23.19
2023-05-05T09:49:28.193Z,23.20
2023-05-05T09:51:58.137Z,23.21
2023-05-05T09:54:29.832Z,23.13
2023-05-05T09:56:59.957Z,23.13
2023-05-05T09:59:29.555Z,23.13
2023-05-05T10:02:16.071Z,23.13
2023-05-05T10:04:45.818Z,23.20
2023-05-05T10:07:26.218Z,23.09
2023-05-05T10:09:55.775Z,23.15
2023-05-05T10:12:26.017Z,23.13
2023-05-05T10:14:58.227Z,23.14
2023-05-05T10:17:32.410Z,23.12
2023-05-05T10:20:03.631Z,23.09
2023-05-05T10:22:37.374Z,23.11
2023-05-05T10:25:14.137Z,23.15
2023-05-05T10:27:46.821Z,23.11
2023-05-05T10:30:22.892Z,23.13
2023-05-05T10:33:07.942Z,23.17
2023-05-05T10:35:44.045Z,23.15
2023-05-05T10:38:15.230Z,23.11
2023-05-05T10:40:47.841Z,23.10
2023-05-05T10:43:17.977Z,23.09
2023-05-05T10:45:47.998Z,23.10
2023-05-05T10:48:41.602Z,23.10
2023-05-05T10:51:31.097Z,23.05
2023-05-05T10:54:32.423Z,23.07
2023-05-05T10:57:06.338Z,23.08
2023-05-05T10:59:39.234Z,23.12
2023-05-05T11:02:27.669Z,23.06
2023-05-05T11:05:18.700Z,23.06
2023-05-05T11:07:50.721Z,23.09
2023-05-05T11:10:25.249Z,23.08
2023-05-05T11:12:54.816Z,23.07
2023-05-05T11:15:32.939Z,23.05
2023-05-05T11:18:06.728Z,23.01
2023-05-05T11:20:45.001Z,23.05
2023-05-05T11:23:16.535Z,23.08
2023-05-05T11:25:46.846Z,23.06
2023-05-05T11:28:22.748Z,23.08
2023-05-05T11:30:58.827Z,23.05
2023-05-05T11:33:39.757Z,23.04
2023-05-05T11:36:17.664Z,23.05
2023-05-05T11:39:21.127Z,23.01
2023-05-05T11:42:10.144Z,23.01
2023-05-05T11:44:40.149Z,23.00
2023-05-05T11:47:09.779Z,23.01
2023-05-05T11:49:40.727Z,23.00
2023-05-05T11:52:14.958Z,22.99
2023-05-05T11:54:50.580Z,22.97
2023-05-05T11:57:25.052Z,22.98
2023-05-05T12:00:07.856Z,22.99
2023-05-05T12:02:38.970Z,23.01
2023-05-05T12:05:09.096Z,22.99
2023-05-05T12:07:38.769Z,22.97
2023-05-05T12:10:09.802Z,22.96
2023-05-05T12:12:42.905Z,22.96
2023-05-05T12:15:12.971Z,22.98
2023-05-05T12:17:47.373Z,22.95
2023-05-05T12:20:16.545Z,23.01
2023-05-05T12:22:46.415Z,22.98
2023-05-05T12:25:18.586Z,22.95
2023-05-05T12:27:54.894Z,22.94
2023-05-05T12:30:25.360Z,22.96
2023-05-05T12:33:09.047Z,22.93
2023-05-05T12:35:39.262Z,22.94
2023-05-05T12:38:09.028Z,22.92
2023-05-05T12:41:04.843Z,22.92
2023-05-05T12:43:35.909Z,22.90
2023-05-05T12:46:06.913Z,22.91
2023-05-05T12:48:39.354Z,22.93
2023-05-05T12:51:21.242Z,22.88
2023-05-05T12:53:52.302Z,22.89
2023-05-05T12:56:39.220Z,22.87
2023-05-05T12:59:24.809Z,22.90
2023-05-05T13:01:56.183Z,22.85
2023-05-05T13:04:27.745Z,22.82
2023-05-05T13:07:14.581Z,22.83
2023-05-05T13:09:44.510Z,22.84
2023-05-05T13:12:14.213Z,22.85
2023-05-05T13:14:44.215Z,22.84
2023-05-05T13:17:14.495Z,22.83
2023-05-05T13:19:47.552Z,22.81
2023-05-05T13:22:17.402Z,22.81
2023-05-05T13:24:52.394Z,22.77
2023-05-05T13:27:22.903Z,22.78
2023-05-05T13:29:52.650Z,22.79
2023-05-05T13:32:22.215Z,22.78
2023-05-05T13:34:52.103Z,22.76
2023-05-05T13:37:21.756Z,22.75
2023-05-05T13:39:51.409Z,22.73
2023-05-05T13:42:21.051Z,22.76
2023-05-05T13:44:50.846Z,22.75
2023-05-05T13:47:20.610Z,22.75
2023-05-05T13:49:50.483Z,22.74
2023-05-05T13:52:20.169Z,22.71
2023-05-05T13:54:49.816Z,22.73
2023-05-05T13:57:19.435Z,22.72
2023-05-05T13:59:49.046Z,22.75
2023-05-05T14:02:18.629Z,22.72
2023-05-05T14:04:48.740Z,22.74
2023-05-05T14:07:18.493Z,22.70
2023-05-05T14:09:48.085Z,22.67
2023-05-05T14:12:17.849Z,22.69
2023-05-05T14:14:48.101Z,22.67
2023-05-05T14:17:17.758Z,22.68
2023-05-05T14:19:47.458Z,22.69
2023-05-05T14:22:17.041Z,22.63
2023-05-05T14:24:46.768Z,22.62
2023-05-05T14:27:16.427Z,22.54
2023-05-05T14:29:46.111Z,22.51
2023-05-05T14:32:15.741Z,22.52
2023-05-05T14:34:45.492Z,22.50
2023-05-05T14:37:15.361Z,22.48
2023-05-05T14:39:45.066Z,22.52
2023-05-05T14:42:14.657Z,22.47
2023-05-05T14:44:44.429Z,22.44
2023-05-05T14:47:14.012Z,22.38
2023-05-05T14:49:43.727Z,22.43
2023-05-05T14:52:16.496Z,22.38
2023-05-05T14:54:46.120Z,22.36
2023-05-05T14:57:15.726Z,22.33
2023-05-05T14:59:47.240Z,22.36
2023-05-05T15:02:17.478Z,22.30
2023-05-05T15:04:49.771Z,22.33
2023-05-05T15:07:19.588Z,22.31
2023-05-05T15:09:49.215Z,22.33
2023-05-05T15:12:18.833Z,22.36
2023-05-05T15:14:48.418Z,22.27
2023-05-05T15:17:18.083Z,22.29
2023-05-05T15:19:47.684Z,22.34
2023-05-05T15:22:17.280Z,22.33
2023-05-05T15:24:46.818Z,22.28
2023-05-05T15:27:19.263Z,22.33
2023-05-05T15:29:50.053Z,22.27
2023-05-05T15:32:19.642Z,22.28
2023-05-05T15:34:50.381Z,22.28
2023-05-05T15:37:20.267Z,22.25
2023-05-05T15:39:49.885Z,22.21
2023-05-05T15:42:19.490Z,22.28
2023-05-05T15:44:49.131Z,22.27
2023-05-05T15:47:18.688Z,22.22
2023-05-05T15:49:48.381Z,22.14
2023-05-05T15:52:18.026Z,22.25
2023-05-05T15:54:47.749Z,22.20
2023-05-05T15:57:17.459Z,22.17
2023-05-05T15:59:47.067Z,22.18
2023-05-05T16:02:16.711Z,22.20
2023-05-05T16:04:46.369Z,22.09
2023-05-05T16:07:15.971Z,22.06
2023-05-05T16:09:45.978Z,22.04
2023-05-05T16:12:15.616Z,22.10
2023-05-05T16:14:45.260Z,22.04
2023-05-05T16:17:14.949Z,22.06
2023-05-05T16:19:44.558Z,22.06
2023-05-05T16:22:14.146Z,22.04
2023-05-05T16:24:44.376Z,22.11
2023-05-05T16:27:14.105Z,22.04
2023-05-05T16:29:43.726Z,22.02
2023-05-05T16:32:13.321Z,22.04
2023-05-05T16:34:42.910Z,22.08
2023-05-05T16:37:12.687Z,22.05
2023-05-05T16:39:43.106Z,22.13
2023-05-05T16:42:12.871Z,22.04
2023-05-05T16:44:43.236Z,22.00
2023-05-05T16:47:12.862Z,22.01
2023-05-05T16:49:42.480Z,21.94
2023-05-05T16:52:12.181Z,21.95
2023-05-05T16:54:41.761Z,21.96
2023-05-05T16:57:11.381Z,21.95
2023-05-05T16:59:43.162Z,22.01
2023-05-05T17:02:12.796Z,21.93
2023-05-05T17:04:42.371Z,21.92
2023-05-05T17:07:11.936Z,21.89
2023-05-05T17:09:41.528Z,21.90
2023-05-05T17:12:11.207Z,21.92
2023-05-05T17:14:41.990Z,21.88
2023-05-05T17:17:11.569Z,21.80
2023-05-05T17:19:41.261Z,21.83
2023-05-05T17:22:11.188Z,21.75
2023-05-05T17:24:40.776Z,21.73
2023-05-05T17:27:10.452Z,21.79
2023-05-05T17:29:42.420Z,21.85
2023-05-05T17:32:12.174Z,21.81
2023-05-05T17:34:42.711Z,21.74
2023-05-05T17:37:12.623Z,21.78
2023-05-05T17:39:42.239Z,21.79
2023-05-05T17:42:12.283Z,21.72
2023-05-05T17:44:41.861Z,21.72
2023-05-05T17:47:12.136Z,21.76
2023-05-05T17:49:41.825Z,21.76
2023-05-05T17:52:12.171Z,21.77
2023-05-05T17:54:43.966Z,21.73
2023-05-05T17:57:14.592Z,21.75
2023-05-05T17:59:44.280Z,21.70
2023-05-05T18:02:14.016Z,21.66
2023-05-05T18:04:44.005Z,21.65
2023-05-05T18:07:15.973Z,21.70
2023-05-05T18:09:45.672Z,21.67
2023-05-05T18:12:15.233Z,21.67
2023-05-05T18:14:44.878Z,21.67
2023-05-05T18:17:14.481Z,21.61
2023-05-05T18:19:49.002Z,21.62
2023-05-05T18:22:19.163Z,21.66
2023-05-05T18:24:48.918Z,21.62
2023-05-05T18:27:18.545Z,21.66
2023-05-05T18:29:48.247Z,21.66
2023-05-05T18:32:17.982Z,21.65
2023-05-05T18:34:47.652Z,21.62
2023-05-05T18:37:17.367Z,21.66
2023-05-05T18:39:47.037Z,21.63
2023-05-05T18:42:16.917Z,21.63
2023-05-05T18:44:46.488Z,21.63
2023-05-05T18:47:16.160Z,21.56
2023-05-05T18:49:46.934Z,21.57
2023-05-05T18:52:17.109Z,21.58
2023-05-05T18:54:46.833Z,21.60
2023-05-05T18:57:16.466Z,21.54
2023-05-05T18:59:46.051Z,21.49
2023-05-05T19:02:15.720Z,21.52
2023-05-05T19:04:45.506Z,21.60
2023-05-05T19:07:27.682Z,21.55
2023-05-05T19:10:03.806Z,21.50
2023-05-05T19:12:33.456Z,21.50
2023-05-05T19:15:03.196Z,21.53
2023-05-05T19:17:32.979Z,21.53
2023-05-05T19:20:02.911Z,21.56
2023-05-05T19:22:32.674Z,21.53
2023-05-05T19:25:02.321Z,21.53
2023-05-05T19:27:35.321Z,21.48
2023-05-05T19:30:06.910Z,21.48
2023-05-05T19:32:36.809Z,21.47
2023-05-05T19:35:08.471Z,21.51
2023-05-05T19:37:38.201Z,21.54
2023-05-05T19:40:12.587Z,21.57
2023-05-05T19:42:42.635Z,21.46
2023-05-05T19:45:12.260Z,21.49
2023-05-05T19:47:41.959Z,21.47
2023-05-05T19:50:12.459Z,21.44
2023-05-05T19:52:43.387Z,21.41
2023-05-05T19:55:14.473Z,21.44
2023-05-05T19:57:44.015Z,21.35
2023-05-05T20:00:14.686Z,21.37
2023-05-05T20:02:44.520Z,21.41
2023-05-05T20:05:18.738Z,21.45
2023-05-05T20:07:48.506Z,21.33
2023-05-05T20:10:18.212Z,21.39
2023-05-05T20:12:49.412Z,21.40
2023-05-05T20:15:20.976Z,21.34
2023-05-05T20:17:51.093Z,21.28
2023-05-05T20:20:22.835Z,21.30
2023-05-05T20:22:52.517Z,21.28
2023-05-05T20:25:22.196Z,21.27
2023-05-05T20:27:51.810Z,21.31
2023-05-05T20:30:21.672Z,21.27
2023-05-05T20:32:51.351Z,21.24
2023-05-05T20:35:21.578Z,21.33
2023-05-05T20:37:52.724Z,21.21
2023-05-05T20:40:22.432Z,21.23
2023-05-05T20:42:52.437Z,21.18
2023-05-05T20:45:22.101Z,21.25
2023-05-05T20:47:51.761Z,21.02
2023-05-05T20:50:24.790Z,21.19
2023-05-05T20:52:54.465Z,21.13
2023-05-05T20:55:24.090Z,21.06
2023-05-05T20:57:53.642Z,21.07
2023-05-05T21:00:23.562Z,21.08
2023-05-05T21:02:53.492Z,21.03
2023-05-05T21:05:23.779Z,21.01
2023-05-05T21:07:57.279Z,21.04
2023-05-05T21:10:28.080Z,21.03
2023-05-05T21:12:57.754Z,20.97
2023-05-05T21:15:27.464Z,21.08
2023-05-05T21:17:57.574Z,20.99
2023-05-05T21:20:27.259Z,20.98
2023-05-05T21:22:58.296Z,20.95
2023-05-05T21:25:28.418Z,20.93
2023-05-05T21:27:57.950Z,21.04
2023-05-05T21:30:27.648Z,20.94
2023-05-05T21:32:57.480Z,21.00
2023-05-05T21:35:27.532Z,20.94
2023-05-05T21:37:57.190Z,20.90
2023-05-05T21:40:27.074Z,21.00
2023-05-05T21:42:56.695Z,20.96
2023-05-05T21:45:26.321Z,21.00
2023-05-05T21:47:55.946Z,20.97
2023-05-05T21:50:27.032Z,20.84
2023-05-05T21:52:57.411Z,20.82
2023-05-05T21:55:27.024Z,20.89
2023-05-05T21:57:56.622Z,20.85
2023-05-05T22:00:26.299Z,20.85
2023-05-05T22:02:56.010Z,20.91
2023-05-05T22:05:25.697Z,20.81
2023-05-05T22:07:55.926Z,20.91
2023-05-05T22:10:25.989Z,20.87
2023-05-05T22:12:55.624Z,20.88
2023-05-05T22:15:27.594Z,20.84
2023-05-05T22:17:59.032Z,20.78
2023-05-05T22:20:28.698Z,20.78
2023-05-05T22:22:59.589Z,20.76
2023-05-05T22:25:29.274Z,20.74
2023-05-05T22:27:58.879Z,20.70
2023-05-05T22:30:29.289Z,20.72
2023-05-05T22:32:59.064Z,20.64
2023-05-05T22:35:28.914Z,20.66
2023-05-05T22:37:58.642Z,20.67
2023-05-05T22:40:28.242Z,20.74
2023-05-05T22:42:57.924Z,20.66
2023-05-05T22:45:27.870Z,20.72
2023-05-05T22:47:57.491Z,20.58
2023-05-05T22:50:27.398Z,20.74
2023-05-05T22:52:56.977Z,20.66
2023-05-05T22:55:26.621Z,20.63
2023-05-05T22:57:56.222Z,20.73
2023-05-05T23:00:26.761Z,20.78
2023-05-05T23:02:56.528Z,20.79
2023-05-05T23:05:26.257Z,20.73
2023-05-05T23:07:55.891Z,20.71
2023-05-05T23:10:25.500Z,20.71
2023-05-05T23:12:55.403Z,20.68
2023-05-05T23:15:26.572Z,20.60
2023-05-05T23:17:56.212Z,20.61
2023-05-05T23:20:25.986Z,20.73
2023-05-05T23:22:55.596Z,20.56
2023-05-05T23:25:25.250Z,20.43
2023-05-05T23:27:54.825Z,20.53
2023-05-05T23:30:24.630Z,20.51
2023-05-05T23:32:54.361Z,20.53
2023-05-05T23:35:24.029Z,20.53
2023-05-05T23:37:56.719Z,20.51
2023-05-05T23:40:26.447Z,20.56
2023-05-05T23:42:56.081Z,20.60
2023-05-05T23:45:25.678Z,20.46
2023-05-05T23:47:55.374Z,20.46
2023-05-05T23:50:25.163Z,20.53
2023-05-05T23:52:54.796Z,20.52
2023-05-05T23:55:24.565Z,20.47
2023-05-05T23:57:54.756Z,20.56
